Pansy, Arkansas
Current Conditions -  °F | °C
As of 6:53 PM on Monday 20 Oct 2014 (Local Time) from KPBF Reporting Station
Clear Clear  
Wind Chill: 19°   Ceiling: Unl
Heat Index: 19°   Visibility: 10mi
Dew Point: 13°   Wind: 6mph
Humidity: 68%   Direction: 250°WSW
Pressure: 30.03"   Gusts: NA
Location:  33.947°N, 92.1633°W
Report Text: KPBF 202353Z AUTO 25005KT 10SM CLR 19/13 A3003 RMK AO2 SLP169 T01890128 10222 20189 55003
Loading
Personal Weather Stations






























Interactive Weather Map
Tropical Storm Tracking
New forecast layout! Learn more

10-Day Weather Forecast

Advertisements
Track Severe Weather on mobile